Time;durP1;ratioP1;P1;durP2;ratioP2;P2;SDS_P1;SDS_P2;PMS_P1;PMS_P2;Temp;Humidity;BMP_temperature;BMP_pressure;BME280_temperature;BME280_humidity;BME280_pressure;Samples;Min_cycle;Max_cycle;Signal;HPM_P1;HPM_P2
2021/11/16 00:01:28;;;;;;;119.97;59.48;;;;;;;6.20;76.28;101447.77;2163002;81;29167;-76
2021/11/16 00:04:30;;;;;;;127.72;60.98;;;;;;;6.20;76.35;101441.98;2134971;83;27625;-77
2021/11/16 00:07:32;;;;;;;123.53;60.40;;;;;;;6.23;76.32;101443.28;2152368;82;28640;-80
2021/11/16 00:10:36;;;;;;;121.70;58.38;;;;;;;6.22;76.27;101436.63;2172050;81;31000;-76
2021/11/16 00:13:38;;;;;;;125.50;60.50;;;;;;;6.19;76.24;101437.56;2140010;81;33121;-75
2021/11/16 00:16:41;;;;;;;123.50;61.20;;;;;;;6.17;76.29;101433.17;2141031;83;29795;-73
2021/11/16 00:19:43;;;;;;;126.02;60.50;;;;;;;6.16;76.32;101442.05;2149842;82;27704;-72
2021/11/16 00:22:46;;;;;;;124.47;60.28;;;;;;;6.17;76.40;101434.50;2146746;82;28806;-70
2021/11/16 00:25:51;;;;;;;127.45;58.65;;;;;;;6.18;76.39;101438.45;2158061;82;31065;-74
2021/11/16 00:28:54;;;;;;;122.10;60.73;;;;;;;6.20;76.35;101447.77;2158092;82;32990;-76
2021/11/16 00:31:56;;;;;;;133.50;62.08;;;;;;;6.20;76.30;101447.77;2156948;82;29157;-79
2021/11/16 00:34:58;;;;;;;120.80;57.85;;;;;;;6.19;76.34;101446.00;2157814;82;27685;-72
2021/11/16 00:38:00;;;;;;;125.12;59.73;;;;;;;6.20;76.35;101449.09;2157338;82;29553;-72
2021/11/16 00:41:03;;;;;;;130.12;60.15;;;;;;;6.21;76.34;101454.82;2152947;82;31163;-73
2021/11/16 00:44:05;;;;;;;125.90;61.48;;;;;;;6.20;76.38;101452.62;2130726;82;33091;-79
2021/11/16 00:47:06;;;;;;;116.80;57.38;;;;;;;6.19;76.27;101450.86;2138724;81;29062;-76
2021/11/16 00:50:10;;;;;;;123.13;60.20;;;;;;;6.18;76.32;101450.89;2135052;83;27598;-75
2021/11/16 00:53:12;;;;;;;128.95;59.80;;;;;;;6.16;76.42;101444.70;2147042;82;28635;-71
2021/11/16 00:56:14;;;;;;;126.50;62.43;;;;;;;6.15;76.47;101450.46;2152869;82;31236;-78
2021/11/16 00:59:16;;;;;;;131.63;62.75;;;;;;;6.14;76.49;101441.19;2171872;81;33783;-79
2021/11/16 01:02:18;;;;;;;131.85;65.70;;;;;;;6.14;76.50;101439.85;2151792;81;29002;-76
2021/11/16 01:05:20;;;;;;;120.57;62.75;;;;;;;6.12;76.45;101446.53;2137688;82;27742;-74
2021/11/16 01:08:22;;;;;;;126.42;60.43;;;;;;;6.12;76.59;101449.63;2172148;81;28798;-73
2021/11/16 01:11:24;;;;;;;133.50;59.45;;;;;;;6.13;76.62;101442.08;2155817;81;31018;-70
2021/11/16 01:14:25;;;;;;;138.72;63.13;;;;;;;6.16;76.56;101447.37;2128559;82;32949;-81
2021/11/16 01:17:27;;;;;;;128.20;62.67;;;;;;;6.16;76.58;101436.73;2156425;82;29012;-75
2021/11/16 01:20:30;;;;;;;135.10;63.50;;;;;;;6.18;76.63;101428.28;2171326;82;27631;-78
2021/11/16 01:23:32;;;;;;;142.98;65.42;;;;;;;6.19;76.54;101421.59;2172699;82;28725;-81
2021/11/16 01:26:35;;;;;;;139.82;64.85;;;;;;;6.21;76.59;101426.45;2171836;81;31846;-79
2021/11/16 01:29:40;;;;;;;;;;;;;;;6.20;76.42;101423.36;2160569;81;28960;-77
2021/11/16 01:32:47;;;;;;;144.97;64.45;;;;;;;6.15;76.43;101423.86;2161439;82;29036;-76
2021/11/16 01:35:48;;;;;;;144.80;66.10;;;;;;;6.11;76.57;101429.24;2175228;81;27651;-70
2021/11/16 01:38:52;;;;;;;136.50;62.10;;;;;;;6.09;76.61;101422.63;2176720;81;28668;-71
2021/11/16 01:41:55;;;;;;;141.22;64.03;;;;;;;6.07;76.62;101424.42;2150031;81;31012;-80
2021/11/16 01:44:57;;;;;;;143.85;63.68;;;;;;;6.06;76.68;101423.98;2139641;81;32960;-84
2021/11/16 01:47:59;;;;;;;134.27;64.30;;;;;;;6.04;76.70;101412.48;2139730;81;29051;-69
2021/11/16 01:51:02;;;;;;;142.53;65.05;;;;;;;6.05;76.75;101415.11;2154543;81;27671;-70
2021/11/16 01:54:05;;;;;;;140.97;64.58;;;;;;;6.06;76.76;101410.69;2160871;81;29484;-73
2021/11/16 01:57:07;;;;;;;143.47;67.03;;;;;;;6.04;76.75;101413.81;2176285;81;31908;-70
2021/11/16 02:00:15;;;;;;;147.60;66.35;;;;;;;6.02;76.81;101408.53;2175524;81;32937;-71
2021/11/16 02:03:17;;;;;;;146.02;66.15;;;;;;;6.01;76.82;101407.20;2173784;81;29014;-69
2021/11/16 02:06:27;;;;;;;154.50;68.87;;;;;;;6.00;76.86;101411.66;2139249;83;27646;-70
2021/11/16 02:09:29;;;;;;;143.37;65.20;;;;;;;5.97;76.86;101408.09;2139072;83;28704;-69
2021/11/16 02:12:30;;;;;;;156.57;70.30;;;;;;;5.91;76.92;101409.95;2140889;81;31024;-69
2021/11/16 02:15:37;;;;;;;160.43;71.90;;;;;;;5.90;77.04;101413.52;2150532;81;33588;-70
2021/11/16 02:18:39;;;;;;;155.55;68.70;;;;;;;5.90;77.10;101412.61;2148396;82;29030;-76
2021/11/16 02:21:41;;;;;;;160.78;69.20;;;;;;;5.88;77.12;101414.41;2148407;82;27778;-79
2021/11/16 02:24:43;;;;;;;149.53;70.08;;;;;;;5.85;77.15;101407.82;2137346;82;28816;-81
2021/11/16 02:27:48;;;;;;;168.90;76.42;;;;;;;5.84;77.29;101408.25;2170902;81;31868;-79
2021/11/16 02:30:50;;;;;;;162.25;71.80;;;;;;;5.84;77.34;101410.05;2137657;82;33022;-79
2021/11/16 02:33:52;;;;;;;166.80;70.85;;;;;;;5.86;77.38;101413.11;2109103;84;29817;-79
2021/11/16 02:36:54;;;;;;;166.15;75.03;;;;;;;5.89;77.44;101413.08;2126877;82;27699;-76
2021/11/16 02:39:57;;;;;;;183.80;80.57;;;;;;;5.90;77.44;101404.20;2155561;82;28712;-79
2021/11/16 02:42:58;;;;;;;161.30;75.08;;;;;;;5.92;77.42;101405.50;2155125;82;31807;-83
2021/11/16 02:46:02;;;;;;;173.80;75.70;;;;;;;5.93;77.46;101400.18;2156032;82;33962;-81
2021/11/16 02:49:04;;;;;;;163.20;75.97;;;;;;;5.98;77.39;101407.20;2127715;82;29858;-70
2021/11/16 02:52:13;;;;;;;158.95;71.40;;;;;;;6.00;77.46;101401.02;2119331;84;28239;-70
2021/11/16 02:55:16;;;;;;;164.22;70.32;;;;;;;6.03;77.44;101386.78;2129937;82;29498;-76
2021/11/16 02:58:19;;;;;;;153.80;67.20;;;;;;;6.05;77.38;101384.98;2155810;82;31980;-81
2021/11/16 03:01:21;;;;;;;157.10;70.45;;;;;;;6.04;77.34;101385.88;2122350;82;32989;-73
2021/11/16 03:04:23;;;;;;;170.05;74.10;;;;;;;6.03;77.32;101388.11;2173516;81;29027;-80
2021/11/16 03:07:45;;;;;;;157.03;70.55;;;;;;;6.00;77.34;101381.06;2135016;82;27623;-70
2021/11/16 03:10:45;;;;;;;169.77;71.80;;;;;;;6.01;77.42;101381.92;2130175;82;28673;-73
2021/11/16 03:13:47;;;;;;;168.30;72.20;;;;;;;5.99;77.38;101377.04;2122427;83;31009;-78
2021/11/16 03:16:49;;;;;;;164.52;72.05;;;;;;;5.98;77.44;101373.95;2134426;83;32998;-76
2021/11/16 03:19:51;;;;;;;170.82;73.35;;;;;;;5.97;77.51;101379.73;2120109;82;29021;-77
2021/11/16 03:22:57;;;;;;;164.10;71.82;;;;;;;5.99;77.54;101379.70;2099142;84;27635;-78
2021/11/16 03:26:01;;;;;;;178.50;75.12;;;;;;;5.99;77.50;101374.38;2118167;83;29468;-77
2021/11/16 03:29:06;;;;;;;175.57;77.25;;;;;;;6.02;77.55;101381.03;2133858;82;30903;-77
2021/11/16 03:32:11;;;;;;;176.18;76.12;;;;;;;6.01;77.50;101375.27;2134858;82;32997;-76
2021/11/16 03:35:12;;;;;;;175.65;74.00;;;;;;;5.99;77.52;101381.92;2140674;81;29024;-77
2021/11/16 03:38:18;;;;;;;172.35;72.70;;;;;;;5.95;77.59;101379.34;2122614;82;27669;-71
2021/11/16 03:41:21;;;;;;;166.92;69.90;;;;;;;5.95;77.69;101381.53;2154594;82;29723;-75
2021/11/16 03:44:23;;;;;;;176.95;74.12;;;;;;;5.92;77.74;101386.45;2158588;82;31896;-75
2021/11/16 03:47:26;;;;;;;172.57;74.10;;;;;;;5.91;77.85;101386.45;2158508;82;32955;-76
2021/11/16 03:50:30;;;;;;;180.85;74.90;;;;;;;5.89;77.85;101380.27;2157844;82;29200;-76
2021/11/16 03:53:36;;;;;;;176.90;72.87;;;;;;;5.88;77.89;101374.08;2158748;82;27611;-73
2021/11/16 03:56:38;;;;;;;168.10;70.65;;;;;;;5.87;77.99;101373.66;2140185;82;28555;-75
2021/11/16 03:59:40;;;;;;;161.35;68.25;;;;;;;5.88;78.01;101365.20;2131414;82;31022;-73
2021/11/16 04:02:42;;;;;;;172.93;69.97;;;;;;;5.89;78.19;101364.31;2156199;82;33768;-74
2021/11/16 04:05:44;;;;;;;159.90;67.50;;;;;;;5.87;78.05;101359.48;2158539;82;29096;-76
2021/11/16 04:08:46;;;;;;;166.20;69.97;;;;;;;5.88;78.15;101361.22;2158853;82;27726;-72
2021/11/16 04:11:48;;;;;;;161.32;67.05;;;;;;;5.86;78.12;101352.41;2144834;82;28928;-73
2021/11/16 04:14:49;;;;;;;181.12;72.20;;;;;;;5.88;78.24;101354.57;2159975;82;31999;-72
2021/11/16 04:17:54;;;;;;;170.05;68.20;;;;;;;5.90;78.21;101356.33;2171900;81;32994;-71
2021/11/16 04:20:57;;;;;;;184.10;71.60;;;;;;;5.91;78.19;101354.10;2171319;81;29023;-72
2021/11/16 04:23:58;;;;;;;161.75;67.45;;;;;;;5.95;78.24;101345.63;2164332;82;28259;-72
2021/11/16 04:27:00;;;;;;;157.75;65.40;;;;;;;5.98;78.22;101346.92;2171939;82;28122;-72
2021/11/16 04:30:04;;;;;;;166.12;68.28;;;;;;;5.99;78.19;101341.13;2171894;81;31000;-71
2021/11/16 04:33:09;;;;;;;162.22;66.05;;;;;;;5.97;78.21;101335.84;2162794;81;32438;-75
2021/11/16 04:36:12;;;;;;;;;;;;;;;5.96;78.18;101338.08;2159871;81;29834;-75
2021/11/16 04:39:14;;;;;;;154.00;62.23;;;;;;;5.95;78.25;101340.30;2141486;81;28255;-75
2021/11/16 04:42:15;;;;;;;157.18;62.05;;;;;;;5.95;78.29;101335.45;2150939;81;28645;-72
2021/11/16 04:45:24;;;;;;;153.62;61.73;;;;;;;5.96;78.34;101337.21;2183682;81;32020;-74
2021/11/16 04:52:00;;;;;;;153.97;59.42;;;;;;;5.98;78.32;101344.26;2132397;82;29058;-75
2021/11/16 05:04:34;;;;;;;142.55;58.80;;;;;;;6.00;78.45;101344.26;2165071;82;33054;-73
2021/11/16 05:07:40;;;;;;;146.98;61.60;;;;;;;6.00;78.49;101343.82;2164926;82;29133;-78
2021/11/16 05:10:43;;;;;;;155.72;63.52;;;;;;;5.99;78.52;101345.13;2173641;81;27618;-78
2021/11/16 05:13:45;;;;;;;149.82;59.40;;;;;;;6.00;78.43;101343.82;2175117;81;29379;-76
2021/11/16 05:16:47;;;;;;;138.37;58.95;;;;;;;6.00;78.49;101343.82;2155553;81;31057;-76
2021/11/16 05:19:48;;;;;;;137.28;58.17;;;;;;;6.01;78.48;101348.24;2151085;81;32972;-79
2021/11/16 05:22:53;;;;;;;144.50;60.10;;;;;;;6.00;78.47;101349.58;2143197;81;29965;-77
2021/11/16 05:25:55;;;;;;;131.60;57.50;;;;;;;6.02;78.64;101343.79;2138659;83;27688;-74
2021/11/16 05:28:58;;;;;;;127.22;57.13;;;;;;;6.03;78.55;101343.78;2138127;83;28091;-76
2021/11/16 05:32:00;;;;;;;138.00;57.48;;;;;;;6.01;78.49;101347.34;2167421;81;31015;-75
2021/11/16 05:35:05;;;;;;;132.20;57.45;;;;;;;6.00;78.55;101354.46;2169774;80;33743;-75
2021/11/16 05:38:07;;;;;;;;;;;;;;;5.99;78.55;101347.34;2143636;82;29103;-75
2021/11/16 05:41:09;;;;;;;125.18;53.33;;;;;;;5.99;78.54;101351.34;2137368;82;28201;-76
2021/11/16 05:44:11;;;;;;;129.10;56.30;;;;;;;5.96;78.58;101351.38;2154223;82;28646;-76
2021/11/16 05:47:13;;;;;;;125.22;54.50;;;;;;;5.96;78.69;101349.18;2145765;82;31831;-76
2021/11/16 05:50:15;;;;;;;123.22;54.10;;;;;;;5.93;78.70;101338.11;2154004;82;33021;-74
2021/11/16 05:53:18;;;;;;;136.72;54.75;;;;;;;5.95;78.75;101332.33;2153048;82;29837;-72
2021/11/16 05:56:22;;;;;;;128.05;54.77;;;;;;;5.95;78.72;101333.66;2154405;82;27703;-78
2021/11/16 05:59:26;;;;;;;130.47;53.58;;;;;;;5.96;78.83;101327.91;2123787;82;28651;-78
2021/11/16 06:02:27;;;;;;;134.47;56.88;;;;;;;5.95;78.83;101330.99;2151220;82;31006;-75
2021/11/16 06:05:29;;;;;;;124.75;54.98;;;;;;;5.97;78.80;101338.94;2154212;82;32925;-77
2021/11/16 06:08:31;;;;;;;130.40;55.45;;;;;;;5.99;78.83;101339.80;2154364;82;28988;-76
2021/11/16 06:11:34;;;;;;;128.27;55.52;;;;;;;5.98;78.81;101342.03;2147149;82;27621;-78
2021/11/16 06:14:36;;;;;;;136.32;58.28;;;;;;;6.01;78.86;101343.36;2117958;82;28643;-75
2021/11/16 06:17:43;;;;;;;139.68;58.45;;;;;;;6.03;78.91;101337.14;2143439;82;31883;-80
2021/11/16 06:20:47;;;;;;;128.62;55.55;;;;;;;6.04;78.81;101332.68;2154360;82;32949;-79
2021/11/16 06:23:49;;;;;;;128.90;54.83;;;;;;;6.04;78.79;101341.99;2136706;82;29029;-80
2021/11/16 06:26:51;;;;;;;135.12;56.30;;;;;;;6.06;78.86;101344.19;2146046;82;27679;-79
2021/11/16 06:29:53;;;;;;;139.55;57.93;;;;;;;6.07;78.86;101357.45;2139101;82;28638;-80
2021/11/16 06:32:54;;;;;;;138.92;57.00;;;;;;;6.11;78.90;101354.75;2125317;82;31011;-79
2021/11/16 06:35:56;;;;;;;123.47;54.50;;;;;;;6.16;78.88;101359.10;2122697;82;32935;-79
2021/11/16 06:38:58;;;;;;;138.85;55.90;;;;;;;6.17;78.76;101349.36;2170230;81;29056;-79
2021/11/16 06:42:01;;;;;;;137.55;57.30;;;;;;;6.18;78.77;101354.64;2154521;80;28154;-81
2021/11/16 06:45:04;;;;;;;133.78;56.83;;;;;;;6.21;78.79;101345.30;2136481;82;28683;-79
2021/11/16 06:48:06;;;;;;;131.85;54.88;;;;;;;6.23;78.71;101351.91;2158294;82;31025;-79
2021/11/16 06:51:08;;;;;;;136.32;56.85;;;;;;;6.24;78.69;101348.34;2134502;81;33125;-66
2021/11/16 06:54:24;;;;;;;129.20;54.80;;;;;;;6.26;78.77;101352.34;2141836;82;28903;-64
2021/11/16 06:57:29;;;;;;;131.67;57.50;;;;;;;6.33;78.85;101357.98;2146198;82;27588;-66
2021/11/16 07:00:33;;;;;;;93.22;39.48;;;;;;;6.42;78.81;101358.29;2150536;82;29578;-62
2021/11/16 07:03:36;;;;;;;154.38;58.23;;;;;;;6.47;78.69;101355.12;2164431;80;31864;-66
2021/11/16 07:06:41;;;;;;;122.33;53.05;;;;;;;6.51;78.55;101360.36;2131916;82;33782;-74
2021/11/16 07:09:45;;;;;;;115.62;51.48;;;;;;;6.58;78.48;101361.61;2128005;82;29075;-63
2021/11/16 07:12:47;;;;;;;114.00;49.35;;;;;;;6.63;78.33;101358.40;2128082;82;28257;-68
2021/11/16 07:15:49;;;;;;;114.45;49.40;;;;;;;6.66;78.16;101351.70;2136876;82;29930;-63
2021/11/16 07:18:53;;;;;;;121.10;51.20;;;;;;;6.68;78.11;101349.45;2158834;82;32047;-63
2021/11/16 07:21:57;;;;;;;119.77;51.28;;;;;;;6.70;78.10;101348.09;2161918;82;33890;-60
2021/11/16 07:25:05;;;;;;;115.72;50.30;;;;;;;6.72;77.93;101344.95;2165191;82;29085;-65
2021/11/16 07:28:07;;;;;;;117.57;51.42;;;;;;;6.74;77.94;101343.15;2165421;82;27724;-68
2021/11/16 07:31:16;;;;;;;119.65;49.93;;;;;;;6.79;78.01;101347.05;2157874;82;29643;-69
2021/11/16 07:34:20;;;;;;;120.00;52.67;;;;;;;6.83;77.86;101346.97;2165409;82;31188;-68
2021/11/16 07:37:32;;;;;;;111.25;52.67;;;;;;;6.86;77.82;101346.50;2131999;82;32967;-72
2021/11/16 07:40:36;;;;;;;116.93;51.37;;;;;;;6.89;77.78;101341.13;2136595;82;30324;-62
2021/11/16 07:43:38;;;;;;;114.72;49.63;;;;;;;6.95;77.81;101338.36;2130010;82;28220;-64
2021/11/16 07:46:53;;;;;;;107.10;48.02;;;;;;;7.01;77.67;101348.02;2164970;82;29529;-69
2021/11/16 07:49:55;;;;;;;102.13;48.03;;;;;;;7.05;77.61;101347.04;2165283;82;31263;-61
2021/11/16 07:53:26;;;;;;;108.67;48.50;;;;;;;7.06;77.37;101343.03;2128033;83;34200;-69
2021/11/16 07:56:29;;;;;;;104.45;47.17;;;;;;;7.06;77.24;101340.80;2128396;83;28548;-68
2021/11/16 07:59:33;;;;;;;107.52;49.38;;;;;;;7.05;77.23;101339.05;2128233;83;27716;-71
2021/11/16 08:02:37;;;;;;;111.85;48.70;;;;;;;7.11;77.42;101335.84;2129188;82;28669;-69
2021/11/16 08:09:11;;;;;;;104.07;47.93;;;;;;;7.22;77.00;101333.42;2128452;83;33806;-70
2021/11/16 08:15:19;;;;;;;109.07;50.08;;;;;;;7.32;76.94;101315.00;2165503;82;27501;-70
2021/11/16 08:18:21;;;;;;;105.10;46.30;;;;;;;7.35;76.75;101323.41;2165029;81;29988;-71
2021/11/16 08:21:25;;;;;;;114.00;50.17;;;;;;;7.36;76.63;101308.70;2156789;82;32115;-69
2021/11/16 08:24:33;;;;;;;111.37;47.00;;;;;;;7.42;76.81;101309.03;2128500;83;33795;-68
2021/11/16 08:27:40;;;;;;;110.63;48.52;;;;;;;7.49;76.58;101306.67;2128680;83;29013;-66
2021/11/16 08:30:42;;;;;;;116.97;49.93;;;;;;;7.51;76.44;101310.20;2128619;82;27808;-68
2021/11/16 08:33:45;;;;;;;120.80;52.33;;;;;;;7.52;76.39;101306.62;2164677;82;29924;-66
2021/11/16 08:36:53;;;;;;;116.15;50.40;;;;;;;7.55;76.26;101304.33;2165019;80;30782;-63
2021/11/16 08:39:59;;;;;;;116.60;51.60;;;;;;;7.60;76.49;101307.32;2165374;82;33027;-68
2021/11/16 08:43:15;;;;;;;112.12;48.20;;;;;;;7.75;76.70;101306.12;2164965;82;29102;-62
2021/11/16 08:46:19;;;;;;;118.35;49.03;;;;;;;7.85;76.26;101303.25;2161804;82;27955;-68
2021/11/16 08:49:29;;;;;;;111.35;47.90;;;;;;;7.93;76.20;101295.97;2098043;83;30167;-64
2021/11/16 08:52:32;;;;;;;110.40;50.08;;;;;;;8.02;75.82;101293.55;2128384;83;31025;-65
2021/11/16 08:55:37;;;;;;;104.25;46.50;;;;;;;8.06;75.75;101294.77;2128016;82;34360;-69
2021/11/16 08:58:39;;;;;;;83.87;37.35;;;;;;;8.06;75.27;101300.11;2128881;82;29048;-69
2021/11/16 09:01:53;;;;;;;103.97;47.95;;;;;;;8.11;75.46;101304.47;2128428;83;27876;-68
2021/11/16 09:04:56;;;;;;;105.20;47.83;;;;;;;8.17;75.41;101298.52;2127825;83;29948;-69
2021/11/16 09:08:02;;;;;;;97.20;44.58;;;;;;;8.24;75.14;101292.58;2128206;83;32055;-70
2021/11/16 09:11:18;;;;;;;106.72;49.63;;;;;;;8.29;75.02;101289.80;2158552;82;34304;-69
2021/11/16 09:14:24;;;;;;;95.35;47.78;;;;;;;8.38;74.70;101285.55;2165479;82;29201;-71
2021/11/16 09:17:26;;;;;;;115.47;50.67;;;;;;;8.40;74.72;101281.05;2159010;82;28165;-67
2021/11/16 09:20:28;;;;;;;99.20;44.03;;;;;;;8.42;74.14;101279.70;2128244;83;29540;-69
2021/11/16 09:23:35;;;;;;;130.70;54.05;;;;;;;8.39;74.33;101279.77;2128482;83;30878;-68
2021/11/16 09:29:52;;;;;;;97.53;44.05;;;;;;;8.36;74.07;101286.05;2004002;88;29016;-68
2021/11/16 09:33:05;;;;;;;132.52;53.15;;;;;;;8.43;73.94;101282.80;1997156;87;28111;-68
2021/11/16 09:36:08;;;;;;;94.00;43.35;;;;;;;8.42;73.81;101282.38;1983387;87;29535;-71
2021/11/16 09:39:17;;;;;;;98.72;43.00;;;;;;;8.33;73.54;101284.81;1999544;89;31881;-67
2021/11/16 09:42:29;;;;;;;100.82;43.68;;;;;;;8.31;73.75;101280.82;1982618;88;33099;-70
2021/11/16 09:45:36;;;;;;;89.10;42.20;;;;;;;8.34;73.91;101287.42;2002814;88;29012;-67
2021/11/16 09:48:38;;;;;;;93.90;45.05;;;;;;;8.35;73.56;101274.50;2002695;87;27911;-69
2021/11/16 09:51:41;;;;;;;91.22;42.35;;;;;;;8.33;73.74;101272.80;2002590;87;28697;-64
2021/11/16 09:54:59;;;;;;;101.45;48.15;;;;;;;8.38;73.74;101270.00;1972368;90;31205;-67
2021/11/16 09:58:05;;;;;;;89.10;41.33;;;;;;;8.50;73.84;101270.61;1998051;89;33923;-66
2021/11/16 10:01:08;;;;;;;84.25;39.33;;;;;;;8.68;73.51;101261.71;2015029;86;29067;-68
2021/11/16 10:04:23;;;;;;;92.12;43.00;;;;;;;8.73;73.03;101265.59;2025024;87;27696;-68
2021/11/16 10:07:23;;;;;;;91.80;43.50;;;;;;;8.65;72.99;101256.44;2071669;82;30077;-68
2021/11/16 10:10:29;;;;;;;92.50;44.25;;;;;;;8.66;73.33;101259.06;2148507;81;32250;-65
2021/11/16 10:13:32;;;;;;;91.80;44.65;;;;;;;8.72;73.35;101251.81;2128609;83;32957;-68
2021/11/16 10:16:34;;;;;;;89.15;41.48;;;;;;;8.80;73.00;101241.34;2128539;83;29064;-63
2021/11/16 10:19:37;;;;;;;79.40;41.50;;;;;;;8.74;72.26;101242.83;2128498;83;27693;-66
2021/11/16 10:22:43;;;;;;;85.92;40.08;;;;;;;8.68;72.48;101236.33;2139452;82;29414;-70
2021/11/16 10:25:55;;;;;;;86.35;41.48;;;;;;;8.65;72.49;101231.92;2165382;82;31087;-62
2021/11/16 10:28:58;;;;;;;94.95;43.50;;;;;;;8.66;72.61;101236.35;2165337;82;33038;-67
2021/11/16 10:32:05;;;;;;;92.30;43.23;;;;;;;8.71;72.72;101234.89;2163304;82;29041;-70
2021/11/16 10:35:15;;;;;;;101.20;50.83;;;;;;;8.65;72.33;101227.06;2159559;82;27787;-66
2021/11/16 10:38:39;;;;;;;87.45;41.80;;;;;;;8.59;72.58;101220.53;2124859;83;28283;-68
2021/11/16 10:41:41;;;;;;;89.00;42.45;;;;;;;8.55;72.33;101221.08;2128451;83;31048;-68
2021/11/16 10:44:58;;;;;;;88.78;42.27;;;;;;;8.45;72.32;101223.08;2129533;82;33356;-68
2021/11/16 10:48:05;;;;;;;91.10;43.28;;;;;;;8.43;72.62;101229.39;2128746;83;29023;-70
2021/11/16 10:51:13;;;;;;;96.02;45.95;;;;;;;8.37;72.46;101218.38;2138025;82;27715;-66
2021/11/16 10:54:17;;;;;;;97.33;43.73;;;;;;;8.39;72.77;101211.69;2165287;82;29572;-67
2021/11/16 10:57:20;;;;;;;95.10;44.20;;;;;;;8.49;72.82;101209.22;2165804;82;31892;-65
2021/11/16 11:00:32;;;;;;;78.87;39.70;;;;;;;8.56;72.77;101210.81;2164995;82;34227;-63
2021/11/16 11:03:42;;;;;;;77.55;39.25;;;;;;;8.48;72.19;101209.69;2128867;83;29119;-65
2021/11/16 11:06:45;;;;;;;77.53;39.38;;;;;;;8.41;72.28;101208.52;2141347;82;27557;-62
2021/11/16 11:09:57;;;;;;;55.70;28.63;;;;;;;8.41;72.47;101201.38;2121869;83;29505;-65
2021/11/16 11:13:25;;;;;;;70.50;35.83;;;;;;;8.48;72.32;101194.10;2147039;82;31031;-65
2021/11/16 11:16:29;;;;;;;80.50;40.50;;;;;;;8.42;71.97;101187.58;2154453;82;32989;-61
2021/11/16 11:19:35;;;;;;;78.90;37.98;;;;;;;8.32;72.06;101181.12;2158128;82;30134;-61
2021/11/16 11:22:41;;;;;;;74.47;37.88;;;;;;;8.27;72.10;101178.16;2139156;82;27693;-64
2021/11/16 11:25:48;;;;;;;74.42;38.13;;;;;;;8.19;72.13;101179.70;2164799;82;29910;-63
2021/11/16 11:29:04;;;;;;;72.12;36.93;;;;;;;8.12;72.56;101172.30;2170003;82;31024;-61
2021/11/16 11:31:55;;;;;;;54.23;29.35;;;;;;;8.18;72.44;101169.94;2166438;82;33905;-62
2021/11/16 11:35:14;;;;;;;68.12;38.00;;;;;;;8.15;72.54;101166.00;2171160;82;29866;-63
2021/11/16 11:38:16;;;;;;;76.00;39.60;;;;;;;8.26;72.84;101167.95;2134570;83;28202;-66
2021/11/16 11:41:20;;;;;;;68.78;37.60;;;;;;;8.37;72.57;101162.31;2134600;82;29557;-65
2021/11/16 11:44:24;;;;;;;75.30;38.10;;;;;;;8.44;72.32;101163.05;2119177;83;30996;-66
2021/11/16 11:47:31;;;;;;;75.97;39.10;;;;;;;8.44;71.99;101149.70;2138613;82;32978;-70
2021/11/16 11:50:38;;;;;;;83.05;42.73;;;;;;;8.37;71.98;101150.30;2134504;83;30289;-68
2021/11/16 11:53:41;;;;;;;74.55;39.92;;;;;;;8.30;72.08;101148.72;2135038;82;27722;-67
2021/11/16 11:56:45;;;;;;;79.82;40.40;;;;;;;8.24;72.29;101149.77;2134981;82;28665;-69
2021/11/16 11:59:48;;;;;;;58.83;30.97;;;;;;;8.20;72.42;101146.28;2142218;82;31055;-66
2021/11/16 12:02:50;;;;;;;81.57;43.42;;;;;;;8.23;72.62;101145.78;2169637;81;33859;-66
2021/11/16 12:05:53;;;;;;;77.03;40.35;;;;;;;8.30;72.71;101130.04;2143815;82;30349;-65
2021/11/16 12:08:57;;;;;;;70.42;40.25;;;;;;;8.30;72.51;101130.90;2171925;81;27627;-68
2021/11/16 12:12:00;;;;;;;77.87;41.45;;;;;;;8.23;72.37;101129.33;2150806;81;29505;-63
2021/11/16 12:15:12;;;;;;;75.35;42.80;;;;;;;8.17;72.40;101120.13;2171240;82;32276;-67
2021/11/16 12:18:16;;;;;;;77.10;43.15;;;;;;;8.17;72.68;101114.80;2134784;83;32954;-63
2021/11/16 12:21:35;;;;;;;75.70;41.80;;;;;;;8.14;72.66;101113.09;2158797;82;29918;-67
2021/11/16 12:24:37;;;;;;;79.80;42.70;;;;;;;8.05;72.62;101103.98;2170834;81;27683;-68
2021/11/16 12:27:39;;;;;;;78.40;43.45;;;;;;;8.00;72.80;101108.58;2171566;82;30030;-68
2021/11/16 12:30:47;;;;;;;81.78;42.05;;;;;;;7.97;72.91;101101.52;2159996;82;32290;-67
2021/11/16 12:33:48;;;;;;;73.52;40.67;;;;;;;7.89;72.97;101096.84;2134561;83;33047;-64
2021/11/16 12:36:50;;;;;;;152.07;92.80;;;;;;;7.80;73.07;101093.06;2134938;83;34687;-64
2021/11/16 12:40:03;;;;;;;89.00;48.30;;;;;;;7.73;73.29;101081.67;2138845;83;27712;-67
2021/11/16 12:43:25;;;;;;;87.65;47.10;;;;;;;7.71;73.48;101082.16;2175311;81;28693;-62
2021/11/16 12:46:29;;;;;;;88.47;47.60;;;;;;;7.71;73.57;101086.17;2176322;81;31079;-66
2021/11/16 12:49:46;;;;;;;87.08;45.58;;;;;;;7.70;73.67;101077.30;2175351;81;33045;-68
2021/11/16 12:52:51;;;;;;;83.60;44.70;;;;;;;7.69;73.77;101067.55;2147011;81;29087;-64
2021/11/16 12:55:54;;;;;;;89.35;47.43;;;;;;;7.65;73.79;101067.20;2147800;81;27775;-63
2021/11/16 12:58:57;;;;;;;93.65;48.87;;;;;;;7.63;73.91;101053.50;2176025;81;29501;-63
2021/11/16 13:02:05;;;;;;;87.33;48.17;;;;;;;7.58;73.94;101053.15;2161387;81;31724;-65
2021/11/16 13:05:10;;;;;;;85.20;47.65;;;;;;;7.58;74.09;101047.81;2138904;83;33117;-64
2021/11/16 13:08:16;;;;;;;94.37;47.98;;;;;;;7.61;74.29;101048.22;2138658;83;30213;-70
2021/11/16 13:11:44;;;;;;;87.22;47.95;;;;;;;7.64;74.37;101045.45;2120899;81;27689;-63
2021/11/16 13:14:46;;;;;;;89.90;47.27;;;;;;;7.66;74.41;101038.76;2079107;85;29127;-64
2021/11/16 13:18:04;;;;;;;89.37;48.70;;;;;;;7.65;74.40;101032.53;2078756;85;32308;-64
2021/11/16 13:21:21;;;;;;;88.07;48.35;;;;;;;7.67;74.45;101034.70;2071060;85;34397;-69
2021/11/16 13:24:28;;;;;;;113.95;61.60;;;;;;;7.69;74.48;101039.55;2076285;84;29965;-65
2021/11/16 13:27:56;;;;;;;101.10;57.13;;;;;;;7.69;74.46;101038.21;2063032;86;27772;-71
2021/11/16 13:31:13;;;;;;;95.67;52.67;;;;;;;7.70;74.48;101040.41;2046849;86;28852;-69
2021/11/16 13:34:22;;;;;;;90.55;49.65;;;;;;;7.69;74.49;101039.55;2042787;87;31046;-70
2021/11/16 13:37:28;;;;;;;92.70;49.67;;;;;;;7.67;74.53;101033.84;2065244;84;33048;-68
2021/11/16 13:40:30;;;;;;;86.40;50.28;;;;;;;7.67;74.54;101031.17;2080506;84;29072;-69
2021/11/16 13:43:32;;;;;;;92.88;51.33;;;;;;;7.66;74.51;101029.42;2073537;84;27834;-69
2021/11/16 13:46:34;;;;;;;92.85;49.77;;;;;;;7.63;74.59;101021.02;2073900;85;28646;-69
2021/11/16 13:49:44;;;;;;;86.35;48.48;;;;;;;7.60;74.65;101013.13;2085093;80;31171;-68
2021/11/16 13:52:56;;;;;;;94.13;50.20;;;;;;;7.55;74.73;101015.89;2190965;79;33935;-71
2021/11/16 13:55:58;;;;;;;85.42;49.35;;;;;;;7.53;74.77;101008.38;2182025;81;29034;-67
2021/11/16 13:59:20;;;;;;;93.15;49.75;;;;;;;7.50;74.90;101008.48;2183753;80;27682;-66
2021/11/16 14:02:22;;;;;;;92.72;50.00;;;;;;;7.51;74.94;101006.69;2183366;81;29665;-70
2021/11/16 14:05:31;;;;;;;87.75;49.23;;;;;;;7.54;74.98;101010.61;2182975;80;31897;-66
2021/11/16 14:08:36;;;;;;;87.25;49.48;;;;;;;7.56;75.07;101001.64;2183708;81;33192;-66
2021/11/16 14:11:55;;;;;;;88.65;50.48;;;;;;;7.58;75.04;101004.30;2190649;80;29873;-68
2021/11/16 14:15:03;;;;;;;89.20;49.90;;;;;;;7.60;75.08;100998.47;2148811;81;27907;-69
2021/11/16 14:18:09;;;;;;;88.47;49.60;;;;;;;7.62;75.09;101000.61;2147943;82;28806;-66
2021/11/16 14:21:17;;;;;;;95.50;50.12;;;;;;;7.64;75.11;100996.58;2123199;82;31179;-67
2021/11/16 14:24:32;;;;;;;89.77;49.30;;;;;;;7.66;75.14;100997.42;2125271;80;34056;-68
2021/11/16 14:27:34;;;;;;;89.25;51.83;;;;;;;7.67;75.15;100990.70;2150846;82;29027;-67